sensor_id;sensor_type;location;lat;lon;timestamp;P1;durP1;ratioP1;P2;durP2;ratioP2
18100;SDS011;9177;49.156;8.142;2023-05-01T00:02:23;2.77;;;2.10;;
18100;SDS011;9177;49.156;8.142;2023-05-01T00:04:50;1.93;;;1.83;;
18100;SDS011;9177;49.156;8.142;2023-05-01T00:07:16;2.00;;;1.80;;
18100;SDS011;9177;49.156;8.142;2023-05-01T00:09:43;2.53;;;2.23;;
18100;SDS011;9177;49.156;8.142;2023-05-01T00:12:10;2.43;;;2.23;;
18100;SDS011;9177;49.156;8.142;2023-05-01T00:14:37;2.50;;;2.20;;
18100;SDS011;9177;49.156;8.142;2023-05-01T00:17:05;1.80;;;1.70;;
18100;SDS011;9177;49.156;8.142;2023-05-01T00:19:32;2.70;;;2.00;;
18100;SDS011;9177;49.156;8.142;2023-05-01T00:21:59;2.33;;;1.80;;
18100;SDS011;9177;49.156;8.142;2023-05-01T00:24:26;2.37;;;1.87;;
18100;SDS011;9177;49.156;8.142;2023-05-01T00:26:53;2.13;;;2.00;;
18100;SDS011;9177;49.156;8.142;2023-05-01T00:29:20;2.37;;;2.17;;
18100;SDS011;9177;49.156;8.142;2023-05-01T00:31:47;2.50;;;2.20;;
18100;SDS011;9177;49.156;8.142;2023-05-01T00:34:15;2.90;;;1.90;;
18100;SDS011;9177;49.156;8.142;2023-05-01T00:36:42;2.33;;;2.10;;
18100;SDS011;9177;49.156;8.142;2023-05-01T00:39:09;2.17;;;2.00;;
18100;SDS011;9177;49.156;8.142;2023-05-01T00:41:36;2.50;;;2.20;;
18100;SDS011;9177;49.156;8.142;2023-05-01T00:44:03;2.47;;;2.27;;
18100;SDS011;9177;49.156;8.142;2023-05-01T00:46:30;2.03;;;1.93;;
18100;SDS011;9177;49.156;8.142;2023-05-01T00:48:59;2.40;;;2.20;;
18100;SDS011;9177;49.156;8.142;2023-05-01T00:51:28;2.33;;;2.13;;
18100;SDS011;9177;49.156;8.142;2023-05-01T00:53:56;2.60;;;2.40;;
18100;SDS011;9177;49.156;8.142;2023-05-01T00:56:25;2.63;;;2.03;;
18100;SDS011;9177;49.156;8.142;2023-05-01T00:58:52;2.27;;;2.07;;
18100;SDS011;9177;49.156;8.142;2023-05-01T01:01:19;2.27;;;2.07;;
18100;SDS011;9177;49.156;8.142;2023-05-01T01:03:47;2.60;;;2.03;;
18100;SDS011;9177;49.156;8.142;2023-05-01T01:06:18;2.47;;;2.27;;
18100;SDS011;9177;49.156;8.142;2023-05-01T01:09:03;2.10;;;1.90;;
18100;SDS011;9177;49.156;8.142;2023-05-01T01:11:39;2.67;;;1.90;;
18100;SDS011;9177;49.156;8.142;2023-05-01T01:14:18;4.13;;;1.93;;
18100;SDS011;9177;49.156;8.142;2023-05-01T01:16:52;2.80;;;1.90;;
18100;SDS011;9177;49.156;8.142;2023-05-01T01:19:33;2.30;;;2.10;;
18100;SDS011;9177;49.156;8.142;2023-05-01T01:22:24;2.17;;;1.97;;
18100;SDS011;9177;49.156;8.142;2023-05-01T01:25:06;2.27;;;2.07;;
18100;SDS011;9177;49.156;8.142;2023-05-01T01:28:03;2.47;;;2.27;;
18100;SDS011;9177;49.156;8.142;2023-05-01T01:30:54;2.53;;;2.03;;
18100;SDS011;9177;49.156;8.142;2023-05-01T01:33:55;2.20;;;2.00;;
18100;SDS011;9177;49.156;8.142;2023-05-01T01:36:39;1.80;;;1.70;;
18100;SDS011;9177;49.156;8.142;2023-05-01T01:39:12;2.67;;;1.80;;
18100;SDS011;9177;49.156;8.142;2023-05-01T01:41:46;2.10;;;2.00;;
18100;SDS011;9177;49.156;8.142;2023-05-01T01:44:18;2.13;;;1.90;;
18100;SDS011;9177;49.156;8.142;2023-05-01T01:46:48;2.20;;;2.00;;
18100;SDS011;9177;49.156;8.142;2023-05-01T01:49:20;1.90;;;1.77;;
18100;SDS011;9177;49.156;8.142;2023-05-01T01:51:49;2.37;;;2.27;;
18100;SDS011;9177;49.156;8.142;2023-05-01T01:54:21;2.60;;;1.80;;
18100;SDS011;9177;49.156;8.142;2023-05-01T01:56:51;2.10;;;1.90;;
18100;SDS011;9177;49.156;8.142;2023-05-01T01:59:20;2.07;;;1.87;;
18100;SDS011;9177;49.156;8.142;2023-05-01T02:01:48;2.13;;;1.93;;
18100;SDS011;9177;49.156;8.142;2023-05-01T02:04:19;2.60;;;1.77;;
18100;SDS011;9177;49.156;8.142;2023-05-01T02:06:48;2.53;;;2.00;;
18100;SDS011;9177;49.156;8.142;2023-05-01T02:09:15;2.70;;;1.90;;
18100;SDS011;9177;49.156;8.142;2023-05-01T02:11:45;2.20;;;2.00;;
18100;SDS011;9177;49.156;8.142;2023-05-01T02:14:13;1.83;;;1.73;;
18100;SDS011;9177;49.156;8.142;2023-05-01T02:16:41;2.27;;;2.07;;
18100;SDS011;9177;49.156;8.142;2023-05-01T02:19:11;2.53;;;2.33;;
18100;SDS011;9177;49.156;8.142;2023-05-01T02:21:41;2.00;;;1.73;;
18100;SDS011;9177;49.156;8.142;2023-05-01T02:24:08;1.60;;;1.50;;
18100;SDS011;9177;49.156;8.142;2023-05-01T02:26:37;2.50;;;1.90;;
18100;SDS011;9177;49.156;8.142;2023-05-01T02:29:08;1.60;;;1.50;;
18100;SDS011;9177;49.156;8.142;2023-05-01T02:31:35;3.43;;;2.20;;
18100;SDS011;9177;49.156;8.142;2023-05-01T02:34:02;1.70;;;1.60;;
18100;SDS011;9177;49.156;8.142;2023-05-01T02:36:29;2.10;;;1.90;;
18100;SDS011;9177;49.156;8.142;2023-05-01T02:39:00;1.97;;;1.87;;
18100;SDS011;9177;49.156;8.142;2023-05-01T02:41:27;3.17;;;2.20;;
18100;SDS011;9177;49.156;8.142;2023-05-01T02:43:59;1.80;;;1.70;;
18100;SDS011;9177;49.156;8.142;2023-05-01T02:46:28;2.17;;;2.03;;
18100;SDS011;9177;49.156;8.142;2023-05-01T02:48:56;1.80;;;1.70;;
18100;SDS011;9177;49.156;8.142;2023-05-01T02:51:26;2.13;;;1.90;;
18100;SDS011;9177;49.156;8.142;2023-05-01T02:53:54;2.03;;;1.93;;
18100;SDS011;9177;49.156;8.142;2023-05-01T02:56:23;1.80;;;1.70;;
18100;SDS011;9177;49.156;8.142;2023-05-01T02:58:52;1.70;;;1.60;;
18100;SDS011;9177;49.156;8.142;2023-05-01T03:01:19;1.93;;;1.83;;
18100;SDS011;9177;49.156;8.142;2023-05-01T03:03:46;2.27;;;1.80;;
18100;SDS011;9177;49.156;8.142;2023-05-01T03:06:12;2.40;;;1.87;;
18100;SDS011;9177;49.156;8.142;2023-05-01T03:08:39;1.80;;;1.70;;
18100;SDS011;9177;49.156;8.142;2023-05-01T03:11:07;2.37;;;1.73;;
18100;SDS011;9177;49.156;8.142;2023-05-01T03:13:35;1.80;;;1.70;;
18100;SDS011;9177;49.156;8.142;2023-05-01T03:16:02;3.00;;;1.90;;
18100;SDS011;9177;49.156;8.142;2023-05-01T03:18:29;2.40;;;1.70;;
18100;SDS011;9177;49.156;8.142;2023-05-01T03:20:56;1.97;;;1.87;;
18100;SDS011;9177;49.156;8.142;2023-05-01T03:23:23;2.83;;;1.97;;
18100;SDS011;9177;49.156;8.142;2023-05-01T03:25:51;1.70;;;1.60;;
18100;SDS011;9177;49.156;8.142;2023-05-01T03:28:19;2.03;;;1.47;;
18100;SDS011;9177;49.156;8.142;2023-05-01T03:30:48;1.90;;;1.80;;
18100;SDS011;9177;49.156;8.142;2023-05-01T03:33:16;2.00;;;1.90;;
18100;SDS011;9177;49.156;8.142;2023-05-01T03:35:43;1.60;;;1.50;;
18100;SDS011;9177;49.156;8.142;2023-05-01T03:38:09;1.80;;;1.57;;
18100;SDS011;9177;49.156;8.142;2023-05-01T03:40:36;1.50;;;1.40;;
18100;SDS011;9177;49.156;8.142;2023-05-01T03:43:03;1.97;;;1.60;;
18100;SDS011;9177;49.156;8.142;2023-05-01T03:45:30;1.80;;;1.40;;
18100;SDS011;9177;49.156;8.142;2023-05-01T03:47:58;1.70;;;1.60;;
18100;SDS011;9177;49.156;8.142;2023-05-01T03:50:25;1.40;;;1.30;;
18100;SDS011;9177;49.156;8.142;2023-05-01T03:52:52;1.70;;;1.57;;
18100;SDS011;9177;49.156;8.142;2023-05-01T03:55:19;1.50;;;1.40;;
18100;SDS011;9177;49.156;8.142;2023-05-01T03:57:46;1.40;;;1.30;;
18100;SDS011;9177;49.156;8.142;2023-05-01T04:00:13;2.90;;;1.60;;
18100;SDS011;9177;49.156;8.142;2023-05-01T04:02:40;4.77;;;1.73;;
18100;SDS011;9177;49.156;8.142;2023-05-01T04:05:08;2.07;;;1.90;;
18100;SDS011;9177;49.156;8.142;2023-05-01T04:07:35;1.70;;;1.60;;
18100;SDS011;9177;49.156;8.142;2023-05-01T04:10:02;1.40;;;1.30;;
18100;SDS011;9177;49.156;8.142;2023-05-01T04:12:31;1.47;;;1.37;;
18100;SDS011;9177;49.156;8.142;2023-05-01T04:14:58;1.50;;;1.40;;
18100;SDS011;9177;49.156;8.142;2023-05-01T04:17:25;1.30;;;1.20;;
18100;SDS011;9177;49.156;8.142;2023-05-01T04:19:52;1.57;;;1.47;;
18100;SDS011;9177;49.156;8.142;2023-05-01T04:22:21;3.20;;;1.53;;
18100;SDS011;9177;49.156;8.142;2023-05-01T04:24:48;1.90;;;1.30;;
18100;SDS011;9177;49.156;8.142;2023-05-01T04:27:15;1.90;;;1.20;;
18100;SDS011;9177;49.156;8.142;2023-05-01T04:29:43;2.70;;;1.40;;
18100;SDS011;9177;49.156;8.142;2023-05-01T04:32:10;1.27;;;1.17;;
18100;SDS011;9177;49.156;8.142;2023-05-01T04:34:37;1.30;;;1.20;;
18100;SDS011;9177;49.156;8.142;2023-05-01T04:37:04;1.43;;;1.20;;
18100;SDS011;9177;49.156;8.142;2023-05-01T04:39:34;2.07;;;1.37;;
18100;SDS011;9177;49.156;8.142;2023-05-01T04:42:01;1.67;;;1.30;;
18100;SDS011;9177;49.156;8.142;2023-05-01T04:44:28;1.27;;;1.13;;
18100;SDS011;9177;49.156;8.142;2023-05-01T04:46:58;1.33;;;1.23;;
18100;SDS011;9177;49.156;8.142;2023-05-01T04:49:27;1.93;;;1.37;;
18100;SDS011;9177;49.156;8.142;2023-05-01T04:51:54;2.13;;;1.30;;
18100;SDS011;9177;49.156;8.142;2023-05-01T04:54:21;1.30;;;1.20;;
18100;SDS011;9177;49.156;8.142;2023-05-01T04:56:49;1.30;;;1.20;;
18100;SDS011;9177;49.156;8.142;2023-05-01T04:59:16;1.50;;;1.20;;
18100;SDS011;9177;49.156;8.142;2023-05-01T05:01:43;1.37;;;1.27;;
18100;SDS011;9177;49.156;8.142;2023-05-01T05:04:10;1.67;;;1.40;;
18100;SDS011;9177;49.156;8.142;2023-05-01T05:06:37;2.07;;;1.13;;
18100;SDS011;9177;49.156;8.142;2023-05-01T05:09:03;1.50;;;1.40;;
18100;SDS011;9177;49.156;8.142;2023-05-01T05:11:30;1.27;;;1.17;;
18100;SDS011;9177;49.156;8.142;2023-05-01T05:13:58;1.40;;;1.30;;
18100;SDS011;9177;49.156;8.142;2023-05-01T05:16:25;1.13;;;1.03;;
18100;SDS011;9177;49.156;8.142;2023-05-01T05:18:53;1.63;;;1.10;;
18100;SDS011;9177;49.156;8.142;2023-05-01T05:21:21;1.40;;;1.30;;
18100;SDS011;9177;49.156;8.142;2023-05-01T05:23:48;1.40;;;1.30;;
18100;SDS011;9177;49.156;8.142;2023-05-01T05:26:15;1.27;;;1.17;;
18100;SDS011;9177;49.156;8.142;2023-05-01T05:28:42;1.30;;;1.20;;
18100;SDS011;9177;49.156;8.142;2023-05-01T05:31:10;1.43;;;1.33;;
18100;SDS011;9177;49.156;8.142;2023-05-01T05:33:37;1.37;;;1.27;;
18100;SDS011;9177;49.156;8.142;2023-05-01T05:36:04;1.17;;;1.10;;
18100;SDS011;9177;49.156;8.142;2023-05-01T05:38:31;3.33;;;1.40;;
18100;SDS011;9177;49.156;8.142;2023-05-01T05:40:58;1.50;;;1.40;;
18100;SDS011;9177;49.156;8.142;2023-05-01T05:43:25;1.30;;;1.20;;
18100;SDS011;9177;49.156;8.142;2023-05-01T05:45:55;1.57;;;1.10;;
18100;SDS011;9177;49.156;8.142;2023-05-01T05:48:24;1.00;;;1.00;;
18100;SDS011;9177;49.156;8.142;2023-05-01T05:50:51;1.43;;;1.33;;
18100;SDS011;9177;49.156;8.142;2023-05-01T05:53:18;2.43;;;1.30;;
18100;SDS011;9177;49.156;8.142;2023-05-01T05:55:45;1.30;;;1.20;;
18100;SDS011;9177;49.156;8.142;2023-05-01T05:58:12;1.40;;;1.23;;
18100;SDS011;9177;49.156;8.142;2023-05-01T06:00:44;1.87;;;1.10;;
18100;SDS011;9177;49.156;8.142;2023-05-01T06:03:11;1.20;;;1.17;;
18100;SDS011;9177;49.156;8.142;2023-05-01T06:05:39;1.30;;;1.20;;
18100;SDS011;9177;49.156;8.142;2023-05-01T06:08:06;1.20;;;1.10;;
18100;SDS011;9177;49.156;8.142;2023-05-01T06:10:34;1.70;;;1.40;;
18100;SDS011;9177;49.156;8.142;2023-05-01T06:13:01;1.30;;;1.20;;
18100;SDS011;9177;49.156;8.142;2023-05-01T06:15:28;1.47;;;1.37;;
18100;SDS011;9177;49.156;8.142;2023-05-01T06:17:55;1.10;;;1.10;;
18100;SDS011;9177;49.156;8.142;2023-05-01T06:20:22;1.57;;;1.20;;
18100;SDS011;9177;49.156;8.142;2023-05-01T06:22:50;1.17;;;1.07;;
18100;SDS011;9177;49.156;8.142;2023-05-01T06:25:17;1.40;;;1.30;;
18100;SDS011;9177;49.156;8.142;2023-05-01T06:27:44;1.10;;;1.03;;
18100;SDS011;9177;49.156;8.142;2023-05-01T06:30:11;0.97;;;0.97;;
18100;SDS011;9177;49.156;8.142;2023-05-01T06:32:38;1.30;;;1.20;;
18100;SDS011;9177;49.156;8.142;2023-05-01T06:35:06;1.40;;;1.30;;
18100;SDS011;9177;49.156;8.142;2023-05-01T06:37:33;1.33;;;1.20;;
18100;SDS011;9177;49.156;8.142;2023-05-01T06:40:04;1.50;;;1.40;;
18100;SDS011;9177;49.156;8.142;2023-05-01T06:42:31;1.30;;;1.20;;
18100;SDS011;9177;49.156;8.142;2023-05-01T06:44:58;1.57;;;1.47;;
18100;SDS011;9177;49.156;8.142;2023-05-01T06:47:25;1.43;;;1.30;;
18100;SDS011;9177;49.156;8.142;2023-05-01T06:49:52;1.33;;;1.23;;
18100;SDS011;9177;49.156;8.142;2023-05-01T06:52:19;1.20;;;1.10;;
18100;SDS011;9177;49.156;8.142;2023-05-01T06:54:46;1.30;;;1.20;;
18100;SDS011;9177;49.156;8.142;2023-05-01T06:57:14;1.30;;;1.20;;
18100;SDS011;9177;49.156;8.142;2023-05-01T06:59:41;1.30;;;1.20;;
18100;SDS011;9177;49.156;8.142;2023-05-01T07:02:07;1.40;;;1.27;;
18100;SDS011;9177;49.156;8.142;2023-05-01T07:04:34;1.20;;;1.10;;
18100;SDS011;9177;49.156;8.142;2023-05-01T07:07:02;1.87;;;1.20;;
18100;SDS011;9177;49.156;8.142;2023-05-01T07:09:28;1.43;;;1.30;;
18100;SDS011;9177;49.156;8.142;2023-05-01T07:11:55;0.93;;;0.93;;
18100;SDS011;9177;49.156;8.142;2023-05-01T07:14:25;1.40;;;1.30;;
18100;SDS011;9177;49.156;8.142;2023-05-01T07:16:52;1.23;;;1.10;;
18100;SDS011;9177;49.156;8.142;2023-05-01T07:19:19;1.40;;;1.30;;
18100;SDS011;9177;49.156;8.142;2023-05-01T07:21:46;1.30;;;1.20;;
18100;SDS011;9177;49.156;8.142;2023-05-01T07:24:13;1.63;;;1.20;;
18100;SDS011;9177;49.156;8.142;2023-05-01T07:26:40;1.53;;;1.40;;
18100;SDS011;9177;49.156;8.142;2023-05-01T07:29:08;1.53;;;1.30;;
18100;SDS011;9177;49.156;8.142;2023-05-01T07:31:36;1.97;;;1.33;;
18100;SDS011;9177;49.156;8.142;2023-05-01T07:34:03;1.30;;;1.20;;
18100;SDS011;9177;49.156;8.142;2023-05-01T07:36:30;1.33;;;1.10;;
18100;SDS011;9177;49.156;8.142;2023-05-01T07:39:00;1.33;;;1.23;;
18100;SDS011;9177;49.156;8.142;2023-05-01T07:41:26;1.50;;;1.10;;
18100;SDS011;9177;49.156;8.142;2023-05-01T07:43:54;1.33;;;1.23;;
18100;SDS011;9177;49.156;8.142;2023-05-01T07:46:23;1.63;;;1.30;;
18100;SDS011;9177;49.156;8.142;2023-05-01T07:48:52;1.20;;;1.10;;
18100;SDS011;9177;49.156;8.142;2023-05-01T07:51:19;1.90;;;1.20;;
18100;SDS011;9177;49.156;8.142;2023-05-01T07:53:46;1.30;;;1.20;;
18100;SDS011;9177;49.156;8.142;2023-05-01T07:56:13;1.17;;;1.07;;
18100;SDS011;9177;49.156;8.142;2023-05-01T07:58:40;1.27;;;1.17;;
18100;SDS011;9177;49.156;8.142;2023-05-01T08:01:08;1.50;;;1.37;;
18100;SDS011;9177;49.156;8.142;2023-05-01T08:03:35;1.47;;;1.00;;
18100;SDS011;9177;49.156;8.142;2023-05-01T08:06:03;1.63;;;1.10;;
18100;SDS011;9177;49.156;8.142;2023-05-01T08:08:30;1.00;;;1.00;;
18100;SDS011;9177;49.156;8.142;2023-05-01T08:10:57;1.10;;;1.10;;
18100;SDS011;9177;49.156;8.142;2023-05-01T08:13:27;1.27;;;1.17;;
18100;SDS011;9177;49.156;8.142;2023-05-01T08:15:54;1.30;;;1.20;;
18100;SDS011;9177;49.156;8.142;2023-05-01T08:18:23;1.00;;;1.00;;
18100;SDS011;9177;49.156;8.142;2023-05-01T08:20:50;1.20;;;1.10;;
18100;SDS011;9177;49.156;8.142;2023-05-01T08:23:18;1.07;;;1.07;;
18100;SDS011;9177;49.156;8.142;2023-05-01T08:25:45;1.30;;;1.20;;
18100;SDS011;9177;49.156;8.142;2023-05-01T08:28:15;1.10;;;1.10;;
18100;SDS011;9177;49.156;8.142;2023-05-01T08:30:42;1.20;;;1.17;;
18100;SDS011;9177;49.156;8.142;2023-05-01T08:33:09;1.40;;;1.30;;
18100;SDS011;9177;49.156;8.142;2023-05-01T08:35:36;1.37;;;1.27;;
18100;SDS011;9177;49.156;8.142;2023-05-01T08:38:03;1.20;;;1.10;;
18100;SDS011;9177;49.156;8.142;2023-05-01T08:40:33;1.20;;;1.10;;
18100;SDS011;9177;49.156;8.142;2023-05-01T08:43:02;1.70;;;1.17;;
18100;SDS011;9177;49.156;8.142;2023-05-01T08:45:30;1.33;;;1.23;;
18100;SDS011;9177;49.156;8.142;2023-05-01T08:48:00;1.40;;;1.30;;
18100;SDS011;9177;49.156;8.142;2023-05-01T08:50:30;1.30;;;1.13;;
18100;SDS011;9177;49.156;8.142;2023-05-01T08:52:59;1.30;;;1.20;;
18100;SDS011;9177;49.156;8.142;2023-05-01T08:55:27;1.33;;;1.23;;
18100;SDS011;9177;49.156;8.142;2023-05-01T08:57:57;1.37;;;1.27;;
18100;SDS011;9177;49.156;8.142;2023-05-01T09:00:24;1.23;;;1.13;;
18100;SDS011;9177;49.156;8.142;2023-05-01T09:02:52;1.90;;;1.40;;
18100;SDS011;9177;49.156;8.142;2023-05-01T09:05:20;1.40;;;1.30;;
18100;SDS011;9177;49.156;8.142;2023-05-01T09:07:47;1.07;;;1.00;;
18100;SDS011;9177;49.156;8.142;2023-05-01T09:10:15;1.30;;;1.20;;
18100;SDS011;9177;49.156;8.142;2023-05-01T09:12:44;2.67;;;1.40;;
18100;SDS011;9177;49.156;8.142;2023-05-01T09:15:17;1.40;;;1.30;;
18100;SDS011;9177;49.156;8.142;2023-05-01T09:17:44;1.20;;;1.10;;
18100;SDS011;9177;49.156;8.142;2023-05-01T09:20:11;1.30;;;1.20;;
18100;SDS011;9177;49.156;8.142;2023-05-01T09:22:38;1.60;;;1.30;;
18100;SDS011;9177;49.156;8.142;2023-05-01T09:25:06;1.53;;;1.33;;
18100;SDS011;9177;49.156;8.142;2023-05-01T09:27:35;1.27;;;1.17;;
18100;SDS011;9177;49.156;8.142;2023-05-01T09:30:02;2.00;;;1.30;;
18100;SDS011;9177;49.156;8.142;2023-05-01T09:32:31;1.30;;;1.20;;
18100;SDS011;9177;49.156;8.142;2023-05-01T09:35:08;1.43;;;1.33;;
18100;SDS011;9177;49.156;8.142;2023-05-01T09:37:35;1.30;;;1.20;;
18100;SDS011;9177;49.156;8.142;2023-05-01T09:40:06;1.60;;;1.50;;
18100;SDS011;9177;49.156;8.142;2023-05-01T09:42:35;1.47;;;1.37;;
18100;SDS011;9177;49.156;8.142;2023-05-01T09:45:04;1.40;;;1.30;;
18100;SDS011;9177;49.156;8.142;2023-05-01T09:47:33;2.17;;;1.30;;
18100;SDS011;9177;49.156;8.142;2023-05-01T09:50:01;1.80;;;1.43;;
18100;SDS011;9177;49.156;8.142;2023-05-01T09:52:29;1.67;;;1.57;;
18100;SDS011;9177;49.156;8.142;2023-05-01T09:55:13;2.47;;;1.90;;
18100;SDS011;9177;49.156;8.142;2023-05-01T09:57:42;2.27;;;1.80;;
18100;SDS011;9177;49.156;8.142;2023-05-01T10:00:10;2.13;;;1.93;;
18100;SDS011;9177;49.156;8.142;2023-05-01T10:02:40;2.30;;;2.10;;
18100;SDS011;9177;49.156;8.142;2023-05-01T10:05:08;3.13;;;2.10;;
18100;SDS011;9177;49.156;8.142;2023-05-01T10:07:37;3.20;;;2.20;;
18100;SDS011;9177;49.156;8.142;2023-05-01T10:10:16;3.43;;;2.40;;
18100;SDS011;9177;49.156;8.142;2023-05-01T10:12:45;3.27;;;2.50;;
18100;SDS011;9177;49.156;8.142;2023-05-01T10:15:13;4.03;;;2.40;;
18100;SDS011;9177;49.156;8.142;2023-05-01T10:17:42;4.07;;;2.80;;
18100;SDS011;9177;49.156;8.142;2023-05-01T10:20:10;3.40;;;2.67;;
18100;SDS011;9177;49.156;8.142;2023-05-01T10:22:38;5.23;;;3.20;;
18100;SDS011;9177;49.156;8.142;2023-05-01T10:25:06;3.83;;;2.60;;
18100;SDS011;9177;49.156;8.142;2023-05-01T10:27:35;3.23;;;2.80;;
18100;SDS011;9177;49.156;8.142;2023-05-01T10:30:05;4.60;;;3.00;;
18100;SDS011;9177;49.156;8.142;2023-05-01T10:32:33;5.40;;;3.00;;
18100;SDS011;9177;49.156;8.142;2023-05-01T10:35:03;4.00;;;2.53;;
18100;SDS011;9177;49.156;8.142;2023-05-01T10:37:38;6.00;;;3.00;;
18100;SDS011;9177;49.156;8.142;2023-05-01T10:43:12;4.97;;;2.97;;
18100;SDS011;9177;49.156;8.142;2023-05-01T10:45:50;3.77;;;2.90;;
18100;SDS011;9177;49.156;8.142;2023-05-01T10:51:20;5.77;;;2.87;;
18100;SDS011;9177;49.156;8.142;2023-05-01T10:53:48;4.93;;;3.10;;
18100;SDS011;9177;49.156;8.142;2023-05-01T10:56:41;4.50;;;2.70;;
18100;SDS011;9177;49.156;8.142;2023-05-01T10:59:09;5.13;;;2.90;;
18100;SDS011;9177;49.156;8.142;2023-05-01T11:01:37;5.60;;;2.90;;
18100;SDS011;9177;49.156;8.142;2023-05-01T11:04:05;3.83;;;2.83;;
18100;SDS011;9177;49.156;8.142;2023-05-01T11:06:35;4.07;;;2.90;;
18100;SDS011;9177;49.156;8.142;2023-05-01T11:12:05;4.80;;;2.90;;
18100;SDS011;9177;49.156;8.142;2023-05-01T11:17:43;3.57;;;2.63;;
18100;SDS011;9177;49.156;8.142;2023-05-01T11:20:11;4.67;;;2.87;;
18100;SDS011;9177;49.156;8.142;2023-05-01T11:23:00;3.73;;;2.87;;
18100;SDS011;9177;49.156;8.142;2023-05-01T11:25:28;4.87;;;2.87;;
18100;SDS011;9177;49.156;8.142;2023-05-01T11:27:57;3.50;;;2.80;;
18100;SDS011;9177;49.156;8.142;2023-05-01T11:30:25;4.90;;;2.60;;
18100;SDS011;9177;49.156;8.142;2023-05-01T11:33:02;5.53;;;3.00;;
18100;SDS011;9177;49.156;8.142;2023-05-01T11:35:30;3.43;;;2.50;;
18100;SDS011;9177;49.156;8.142;2023-05-01T11:37:59;5.07;;;2.70;;
18100;SDS011;9177;49.156;8.142;2023-05-01T11:40:27;4.63;;;3.20;;
18100;SDS011;9177;49.156;8.142;2023-05-01T11:42:58;4.00;;;2.70;;
18100;SDS011;9177;49.156;8.142;2023-05-01T11:45:26;4.27;;;2.43;;
18100;SDS011;9177;49.156;8.142;2023-05-01T11:47:54;4.50;;;3.17;;
18100;SDS011;9177;49.156;8.142;2023-05-01T11:50:21;4.33;;;2.83;;
18100;SDS011;9177;49.156;8.142;2023-05-01T11:52:56;2.97;;;2.63;;
18100;SDS011;9177;49.156;8.142;2023-05-01T11:55:30;4.20;;;2.70;;
18100;SDS011;9177;49.156;8.142;2023-05-01T11:57:58;3.20;;;2.87;;
18100;SDS011;9177;49.156;8.142;2023-05-01T12:00:27;4.67;;;3.20;;
18100;SDS011;9177;49.156;8.142;2023-05-01T12:02:55;4.30;;;2.70;;
18100;SDS011;9177;49.156;8.142;2023-05-01T12:05:23;4.37;;;2.97;;
18100;SDS011;9177;49.156;8.142;2023-05-01T12:08:05;4.93;;;2.70;;
18100;SDS011;9177;49.156;8.142;2023-05-01T12:10:38;4.20;;;2.37;;
18100;SDS011;9177;49.156;8.142;2023-05-01T12:13:07;5.17;;;2.73;;
18100;SDS011;9177;49.156;8.142;2023-05-01T12:15:36;4.87;;;2.97;;
18100;SDS011;9177;49.156;8.142;2023-05-01T12:18:04;4.83;;;2.87;;
18100;SDS011;9177;49.156;8.142;2023-05-01T12:20:35;4.00;;;2.53;;
18100;SDS011;9177;49.156;8.142;2023-05-01T12:23:03;2.50;;;2.30;;
18100;SDS011;9177;49.156;8.142;2023-05-01T12:25:35;3.17;;;2.43;;
18100;SDS011;9177;49.156;8.142;2023-05-01T12:28:08;4.23;;;2.80;;
18100;SDS011;9177;49.156;8.142;2023-05-01T12:30:36;2.77;;;2.40;;
18100;SDS011;9177;49.156;8.142;2023-05-01T12:33:07;3.33;;;2.57;;
18100;SDS011;9177;49.156;8.142;2023-05-01T12:35:36;2.90;;;2.63;;
18100;SDS011;9177;49.156;8.142;2023-05-01T12:38:09;4.63;;;2.30;;
18100;SDS011;9177;49.156;8.142;2023-05-01T12:40:38;3.43;;;2.60;;
18100;SDS011;9177;49.156;8.142;2023-05-01T12:43:05;4.37;;;2.87;;
18100;SDS011;9177;49.156;8.142;2023-05-01T12:45:43;3.77;;;2.37;;
18100;SDS011;9177;49.156;8.142;2023-05-01T12:48:13;2.87;;;2.40;;
18100;SDS011;9177;49.156;8.142;2023-05-01T12:50:43;4.37;;;2.90;;
18100;SDS011;9177;49.156;8.142;2023-05-01T12:53:11;5.07;;;2.73;;
18100;SDS011;9177;49.156;8.142;2023-05-01T12:55:42;2.97;;;2.17;;
18100;SDS011;9177;49.156;8.142;2023-05-01T12:58:10;4.33;;;2.40;;
18100;SDS011;9177;49.156;8.142;2023-05-01T13:00:42;2.80;;;2.60;;
18100;SDS011;9177;49.156;8.142;2023-05-01T13:03:10;3.90;;;2.30;;
18100;SDS011;9177;49.156;8.142;2023-05-01T13:05:48;2.93;;;2.63;;
18100;SDS011;9177;49.156;8.142;2023-05-01T13:08:21;4.17;;;2.60;;
18100;SDS011;9177;49.156;8.142;2023-05-01T13:10:52;3.73;;;2.67;;
18100;SDS011;9177;49.156;8.142;2023-05-01T13:13:24;2.93;;;2.47;;
18100;SDS011;9177;49.156;8.142;2023-05-01T13:15:53;3.23;;;2.40;;
18100;SDS011;9177;49.156;8.142;2023-05-01T13:18:28;2.73;;;2.30;;
18100;SDS011;9177;49.156;8.142;2023-05-01T13:21:04;3.07;;;2.70;;
18100;SDS011;9177;49.156;8.142;2023-05-01T13:23:35;4.03;;;2.60;;
18100;SDS011;9177;49.156;8.142;2023-05-01T13:26:04;3.07;;;2.40;;
18100;SDS011;9177;49.156;8.142;2023-05-01T13:28:32;3.90;;;2.30;;
18100;SDS011;9177;49.156;8.142;2023-05-01T13:31:02;2.77;;;2.40;;
18100;SDS011;9177;49.156;8.142;2023-05-01T13:33:35;3.23;;;2.30;;
18100;SDS011;9177;49.156;8.142;2023-05-01T13:36:02;4.13;;;2.87;;
18100;SDS011;9177;49.156;8.142;2023-05-01T13:38:29;3.93;;;2.40;;
18100;SDS011;9177;49.156;8.142;2023-05-01T13:41:04;5.23;;;2.63;;
18100;SDS011;9177;49.156;8.142;2023-05-01T13:43:31;4.23;;;2.60;;
18100;SDS011;9177;49.156;8.142;2023-05-01T13:46:01;6.37;;;2.77;;
18100;SDS011;9177;49.156;8.142;2023-05-01T13:48:29;3.00;;;2.60;;
18100;SDS011;9177;49.156;8.142;2023-05-01T13:50:56;3.07;;;2.50;;
18100;SDS011;9177;49.156;8.142;2023-05-01T13:53:26;3.10;;;2.80;;
18100;SDS011;9177;49.156;8.142;2023-05-01T13:55:54;2.37;;;2.17;;
18100;SDS011;9177;49.156;8.142;2023-05-01T13:58:22;3.10;;;2.40;;
18100;SDS011;9177;49.156;8.142;2023-05-01T14:00:48;2.93;;;2.40;;
18100;SDS011;9177;49.156;8.142;2023-05-01T14:03:17;4.10;;;2.50;;
18100;SDS011;9177;49.156;8.142;2023-05-01T14:05:44;3.07;;;2.50;;
18100;SDS011;9177;49.156;8.142;2023-05-01T14:08:12;4.47;;;2.77;;
18100;SDS011;9177;49.156;8.142;2023-05-01T14:10:40;3.40;;;2.60;;
18100;SDS011;9177;49.156;8.142;2023-05-01T14:13:06;3.53;;;2.40;;
18100;SDS011;9177;49.156;8.142;2023-05-01T14:15:34;3.10;;;2.37;;
18100;SDS011;9177;49.156;8.142;2023-05-01T14:18:03;2.90;;;2.20;;
18100;SDS011;9177;49.156;8.142;2023-05-01T14:20:32;3.87;;;2.67;;
18100;SDS011;9177;49.156;8.142;2023-05-01T14:22:59;2.87;;;2.60;;
18100;SDS011;9177;49.156;8.142;2023-05-01T14:25:26;3.50;;;2.40;;
18100;SDS011;9177;49.156;8.142;2023-05-01T14:27:55;2.97;;;2.43;;
18100;SDS011;9177;49.156;8.142;2023-05-01T14:30:26;5.07;;;2.57;;
18100;SDS011;9177;49.156;8.142;2023-05-01T14:32:57;5.93;;;2.37;;
18100;SDS011;9177;49.156;8.142;2023-05-01T14:35:26;3.90;;;2.80;;
18100;SDS011;9177;49.156;8.142;2023-05-01T14:37:54;3.90;;;2.50;;
18100;SDS011;9177;49.156;8.142;2023-05-01T14:40:24;2.50;;;2.30;;
18100;SDS011;9177;49.156;8.142;2023-05-01T14:42:52;4.63;;;2.73;;
18100;SDS011;9177;49.156;8.142;2023-05-01T14:45:19;5.33;;;2.33;;
18100;SDS011;9177;49.156;8.142;2023-05-01T14:47:47;3.57;;;2.60;;
18100;SDS011;9177;49.156;8.142;2023-05-01T14:50:18;3.93;;;2.40;;
18100;SDS011;9177;49.156;8.142;2023-05-01T14:52:46;3.63;;;2.70;;
18100;SDS011;9177;49.156;8.142;2023-05-01T14:55:20;3.13;;;2.23;;
18100;SDS011;9177;49.156;8.142;2023-05-01T14:57:52;3.60;;;2.27;;
18100;SDS011;9177;49.156;8.142;2023-05-01T15:00:19;3.83;;;2.80;;
18100;SDS011;9177;49.156;8.142;2023-05-01T15:02:46;4.27;;;2.40;;
18100;SDS011;9177;49.156;8.142;2023-05-01T15:05:13;2.20;;;2.03;;
18100;SDS011;9177;49.156;8.142;2023-05-01T15:07:40;3.43;;;2.27;;
18100;SDS011;9177;49.156;8.142;2023-05-01T15:10:07;2.47;;;2.27;;
18100;SDS011;9177;49.156;8.142;2023-05-01T15:12:36;4.87;;;2.50;;
18100;SDS011;9177;49.156;8.142;2023-05-01T15:15:03;3.33;;;2.40;;
18100;SDS011;9177;49.156;8.142;2023-05-01T15:17:31;2.53;;;2.30;;
18100;SDS011;9177;49.156;8.142;2023-05-01T15:19:58;4.87;;;2.40;;
18100;SDS011;9177;49.156;8.142;2023-05-01T15:22:25;2.60;;;2.30;;
18100;SDS011;9177;49.156;8.142;2023-05-01T15:24:52;4.47;;;2.10;;